createdAt,value
2022-10-09T00:00:32.779Z,76.44
2022-10-09T00:03:07.055Z,76.49
2022-10-09T00:05:40.795Z,76.10
2022-10-09T00:08:13.267Z,76.40
2022-10-09T00:10:46.239Z,76.09
2022-10-09T00:13:19.045Z,76.17
2022-10-09T00:15:51.712Z,76.42
2022-10-09T00:18:25.596Z,76.34
2022-10-09T00:20:58.175Z,76.63
2022-10-09T00:23:30.945Z,76.18
2022-10-09T00:26:03.553Z,76.30
2022-10-09T00:28:38.645Z,76.05
2022-10-09T00:31:12.804Z,76.25
2022-10-09T00:33:46.924Z,76.20
2022-10-09T00:36:20.848Z,76.27
2022-10-09T00:38:54.712Z,76.49
2022-10-09T00:41:29.429Z,76.32
2022-10-09T00:44:03.926Z,76.65
2022-10-09T00:46:42.438Z,76.60
2022-10-09T00:49:25.737Z,76.40
2022-10-09T00:52:02.242Z,76.36
2022-10-09T00:54:39.925Z,76.78
2022-10-09T00:57:12.635Z,76.68
2022-10-09T00:59:45.476Z,76.82
2022-10-09T01:02:18.416Z,77.04
2022-10-09T01:04:52.306Z,76.76
2022-10-09T01:07:34.006Z,76.81
2022-10-09T01:10:18.018Z,76.76
2022-10-09T01:13:01.509Z,76.59
2022-10-09T01:15:39.356Z,76.99
2022-10-09T01:18:18.258Z,76.83
2022-10-09T01:20:55.219Z,77.11
2022-10-09T01:24:03.212Z,76.96
2022-10-09T01:26:58.900Z,77.10
2022-10-09T01:29:36.613Z,77.20
2022-10-09T01:32:10.765Z,77.57
2022-10-09T01:34:46.231Z,77.49
2022-10-09T01:37:21.453Z,77.41
2022-10-09T01:39:54.539Z,77.40
2022-10-09T01:42:29.012Z,77.30
2022-10-09T01:45:02.955Z,77.58
2022-10-09T01:47:38.074Z,77.61
2022-10-09T01:50:22.086Z,77.55
2022-10-09T01:52:59.257Z,77.30
2022-10-09T01:55:39.291Z,77.35
2022-10-09T01:58:19.039Z,77.79
2022-10-09T02:01:00.360Z,77.46
2022-10-09T02:03:35.528Z,77.89
2022-10-09T02:06:11.361Z,77.30
2022-10-09T02:08:46.136Z,77.45
2022-10-09T02:11:18.917Z,77.40
2022-10-09T02:13:53.186Z,77.32
2022-10-09T02:16:37.407Z,77.62
2022-10-09T02:19:14.739Z,77.54
2022-10-09T02:21:54.431Z,77.26
2022-10-09T02:24:28.382Z,77.32
2022-10-09T02:27:02.797Z,77.27
2022-10-09T02:29:35.622Z,77.74
2022-10-09T02:32:10.253Z,77.48
2022-10-09T02:34:43.041Z,77.61
2022-10-09T02:37:16.022Z,77.77
2022-10-09T02:39:49.072Z,77.38
2022-10-09T02:42:22.330Z,77.84
2022-10-09T02:44:54.729Z,77.77
2022-10-09T02:47:28.691Z,78.05
2022-10-09T02:50:01.055Z,77.59
2022-10-09T02:52:35.676Z,77.53
2022-10-09T02:55:08.718Z,77.83
2022-10-09T02:57:41.283Z,77.65
2022-10-09T03:00:14.858Z,77.80
2022-10-09T03:02:49.088Z,78.23
2022-10-09T03:05:21.730Z,77.85
2022-10-09T03:07:54.263Z,78.06
2022-10-09T03:10:26.921Z,77.93
2022-10-09T03:12:59.496Z,77.98
2022-10-09T03:15:34.022Z,78.01
2022-10-09T03:18:07.971Z,77.76
2022-10-09T03:20:40.448Z,77.95
2022-10-09T03:23:13.207Z,78.10
2022-10-09T03:25:45.653Z,78.08
2022-10-09T03:28:18.381Z,78.06
2022-10-09T03:30:50.963Z,78.13
2022-10-09T03:33:24.866Z,78.04
2022-10-09T03:35:57.263Z,77.88
2022-10-09T03:38:30.026Z,77.98
2022-10-09T03:41:04.306Z,77.80
2022-10-09T03:43:37.159Z,77.84
2022-10-09T03:46:10.067Z,77.88
2022-10-09T03:48:44.006Z,78.02
2022-10-09T03:51:16.413Z,78.02
2022-10-09T03:53:49.003Z,77.94
2022-10-09T03:56:21.430Z,77.85
2022-10-09T03:58:54.137Z,78.00
2022-10-09T04:01:26.746Z,77.98
2022-10-09T04:04:03.563Z,78.20
2022-10-09T04:06:36.075Z,78.06
2022-10-09T04:09:08.967Z,78.43
2022-10-09T04:11:41.482Z,78.06
2022-10-09T04:14:13.977Z,78.22
2022-10-09T04:16:46.594Z,78.03
2022-10-09T04:19:20.649Z,78.00
2022-10-09T04:21:53.081Z,78.04
2022-10-09T04:24:25.701Z,78.19
2022-10-09T04:26:58.130Z,78.15
2022-10-09T04:29:30.715Z,77.95
2022-10-09T04:32:03.143Z,77.85
2022-10-09T04:34:37.037Z,78.09
2022-10-09T04:37:09.551Z,77.87
2022-10-09T04:39:42.162Z,78.04
2022-10-09T04:42:14.654Z,78.03
2022-10-09T04:44:47.172Z,77.70
2022-10-09T04:47:19.589Z,77.56
2022-10-09T04:49:53.462Z,77.60
2022-10-09T04:52:26.060Z,77.87
2022-10-09T04:54:58.582Z,77.55
2022-10-09T04:57:31.025Z,77.96
2022-10-09T05:00:04.545Z,77.73
2022-10-09T05:02:37.066Z,77.87
2022-10-09T05:05:11.386Z,77.90
2022-10-09T05:07:43.859Z,77.67
2022-10-09T05:10:16.610Z,77.59
2022-10-09T05:12:49.291Z,77.69
2022-10-09T05:15:22.076Z,77.46
2022-10-09T05:17:54.698Z,77.65
2022-10-09T05:20:28.806Z,77.93
2022-10-09T05:23:01.574Z,77.55
2022-10-09T05:25:34.186Z,77.53
2022-10-09T05:28:06.785Z,77.47
2022-10-09T05:30:41.966Z,77.81
2022-10-09T05:33:14.425Z,77.56
2022-10-09T05:35:56.460Z,77.19
2022-10-09T05:38:29.430Z,77.67
2022-10-09T05:41:05.246Z,77.18
2022-10-09T05:43:39.694Z,77.16
2022-10-09T05:46:14.286Z,77.23
2022-10-09T05:48:51.522Z,76.77
2022-10-09T05:51:27.012Z,77.09
2022-10-09T05:54:02.030Z,77.06
2022-10-09T05:56:36.794Z,76.85
2022-10-09T05:59:11.398Z,77.07
2022-10-09T06:01:47.159Z,76.56
2022-10-09T06:04:21.612Z,76.67
2022-10-09T06:06:56.203Z,76.31
2022-10-09T06:09:28.770Z,76.78
2022-10-09T06:12:02.771Z,76.18
2022-10-09T06:14:35.287Z,75.60
2022-10-09T06:17:07.896Z,75.92
2022-10-09T06:19:40.269Z,75.80
2022-10-09T06:22:14.415Z,75.63
2022-10-09T06:24:46.810Z,76.37
2022-10-09T06:27:19.358Z,75.53
2022-10-09T06:29:53.478Z,75.19
2022-10-09T06:32:26.182Z,75.06
2022-10-09T06:34:58.665Z,74.77
2022-10-09T06:37:32.645Z,74.94
2022-10-09T06:40:05.893Z,74.48
2022-10-09T06:42:38.620Z,74.56
2022-10-09T06:45:22.085Z,73.94
2022-10-09T06:47:55.506Z,73.72
2022-10-09T06:50:27.882Z,73.68
2022-10-09T06:53:01.892Z,73.85
2022-10-09T06:55:34.306Z,73.58
2022-10-09T06:58:06.877Z,73.40
2022-10-09T07:00:39.335Z,73.66
2022-10-09T07:03:11.997Z,73.46
2022-10-09T07:05:44.759Z,72.81
2022-10-09T07:08:18.966Z,72.97
2022-10-09T07:10:51.375Z,72.74
2022-10-09T07:13:24.089Z,73.30
2022-10-09T07:15:57.473Z,73.02
2022-10-09T07:18:32.690Z,72.51
2022-10-09T07:21:07.137Z,72.59
2022-10-09T07:23:41.198Z,72.42
2022-10-09T07:26:15.995Z,72.29
2022-10-09T07:28:49.436Z,72.70
2022-10-09T07:31:23.280Z,72.45
2022-10-09T07:33:57.106Z,71.95
2022-10-09T07:36:29.710Z,72.13
2022-10-09T07:39:05.042Z,72.09
2022-10-09T07:41:37.574Z,71.77
2022-10-09T07:44:10.562Z,71.93
2022-10-09T07:46:43.149Z,71.91
2022-10-09T07:49:16.081Z,71.95
2022-10-09T07:51:48.598Z,71.26
2022-10-09T07:54:22.685Z,71.42
2022-10-09T07:56:55.245Z,71.61
2022-10-09T07:59:30.285Z,71.46
2022-10-09T08:02:03.087Z,70.97
2022-10-09T08:04:37.517Z,70.90
2022-10-09T08:07:09.987Z,71.36
2022-10-09T08:09:44.102Z,70.99
2022-10-09T08:12:16.494Z,70.58
2022-10-09T08:14:49.357Z,70.47
2022-10-09T08:17:21.842Z,70.61
2022-10-09T08:19:54.664Z,70.99
2022-10-09T08:22:27.101Z,71.16
2022-10-09T08:25:01.473Z,71.26
2022-10-09T08:27:35.854Z,70.70
2022-10-09T08:30:09.346Z,70.63
2022-10-09T08:32:41.797Z,70.66
2022-10-09T08:35:14.470Z,71.02
2022-10-09T08:37:46.985Z,71.07
2022-10-09T08:40:30.030Z,70.51
2022-10-09T08:43:06.734Z,70.38
2022-10-09T08:45:40.958Z,70.26
2022-10-09T08:48:20.303Z,70.28
2022-10-09T08:50:57.384Z,70.01
2022-10-09T08:53:38.300Z,70.12
2022-10-09T08:56:15.628Z,70.04
2022-10-09T08:58:48.223Z,69.81
2022-10-09T09:01:30.618Z,70.08
2022-10-09T09:04:26.351Z,70.27
2022-10-09T09:07:09.465Z,70.05
2022-10-09T09:09:52.433Z,70.18
2022-10-09T09:12:36.816Z,69.78
2022-10-09T09:15:25.896Z,69.85
2022-10-09T09:18:17.164Z,69.36
2022-10-09T09:20:53.651Z,68.98
2022-10-09T09:23:29.919Z,68.54
2022-10-09T09:26:02.892Z,68.95
2022-10-09T09:28:39.768Z,68.74
2022-10-09T09:31:17.747Z,68.53
2022-10-09T09:33:56.639Z,68.85
2022-10-09T09:36:35.298Z,68.12
2022-10-09T09:40:07.794Z,68.15
2022-10-09T09:42:16.042Z,67.86
2022-10-09T09:44:58.091Z,67.15
2022-10-09T09:47:34.802Z,67.02
2022-10-09T09:50:18.519Z,66.86
2022-10-09T09:53:05.227Z,66.83
2022-10-09T09:55:37.953Z,67.00
2022-10-09T09:58:17.030Z,66.81
2022-10-09T10:01:01.159Z,67.11
2022-10-09T10:03:35.155Z,66.79
2022-10-09T10:06:22.814Z,66.51
2022-10-09T10:09:00.105Z,65.97
2022-10-09T10:11:35.865Z,65.85
2022-10-09T10:14:09.952Z,65.82
2022-10-09T10:16:48.521Z,65.22
2022-10-09T10:19:23.130Z,65.44
2022-10-09T10:21:57.009Z,65.21
2022-10-09T10:24:34.360Z,65.14
2022-10-09T10:27:14.321Z,64.92
2022-10-09T10:29:50.483Z,64.70
2022-10-09T10:32:29.557Z,64.41
2022-10-09T10:35:05.139Z,63.97
2022-10-09T10:37:46.786Z,64.09
2022-10-09T10:40:25.075Z,64.44
2022-10-09T10:43:18.367Z,64.07
2022-10-09T10:46:00.004Z,64.03
2022-10-09T10:48:40.267Z,63.75
2022-10-09T10:51:31.067Z,64.29
2022-10-09T10:54:18.830Z,63.41
2022-10-09T10:56:57.066Z,62.94
2022-10-09T10:59:38.225Z,63.30
2022-10-09T11:02:46.121Z,63.93
2022-10-09T11:05:30.482Z,62.95
2022-10-09T11:08:18.065Z,62.71
2022-10-09T11:10:59.709Z,62.53
2022-10-09T11:13:35.137Z,61.95
2022-10-09T11:16:24.546Z,62.44
2022-10-09T11:19:17.534Z,62.11
2022-10-09T11:22:02.313Z,62.23
2022-10-09T11:24:56.454Z,61.95
2022-10-09T11:27:38.610Z,61.79
2022-10-09T11:30:13.653Z,61.97
2022-10-09T11:32:56.163Z,61.83
2022-10-09T11:35:34.246Z,61.49
2022-10-09T11:38:24.391Z,61.87
2022-10-09T11:40:58.569Z,61.40
2022-10-09T11:43:53.326Z,61.94
2022-10-09T11:46:38.127Z,61.47
2022-10-09T11:49:22.754Z,61.41
2022-10-09T11:52:02.468Z,61.05
2022-10-09T11:54:37.127Z,61.18
2022-10-09T11:57:14.960Z,61.14
2022-10-09T11:59:48.251Z,60.90
2022-10-09T12:02:30.068Z,60.68
2022-10-09T12:05:02.777Z,60.62
2022-10-09T12:10:36.286Z,61.44
2022-10-09T12:13:27.623Z,60.76
2022-10-09T12:16:00.285Z,60.61
2022-10-09T12:18:36.321Z,60.34
2022-10-09T12:21:22.330Z,60.49
2022-10-09T12:23:55.378Z,60.35
2022-10-09T12:26:30.639Z,59.94
2022-10-09T12:29:05.386Z,59.94
2022-10-09T12:31:41.812Z,59.83
2022-10-09T12:34:20.760Z,59.86
2022-10-09T12:37:04.601Z,60.23
2022-10-09T12:39:37.683Z,60.20
2022-10-09T12:42:18.545Z,60.07
2022-10-09T12:44:54.414Z,59.91
2022-10-09T12:47:29.768Z,59.54
2022-10-09T12:50:12.776Z,59.77
2022-10-09T12:52:49.242Z,60.08
2022-10-09T12:55:27.574Z,60.17
2022-10-09T12:58:04.586Z,60.08
2022-10-09T13:00:37.158Z,60.08
2022-10-09T13:03:23.505Z,60.46
2022-10-09T13:05:57.648Z,59.94
2022-10-09T13:08:32.793Z,60.31
2022-10-09T13:11:10.903Z,60.05
2022-10-09T13:13:49.666Z,60.19
2022-10-09T13:16:22.814Z,60.12
2022-10-09T13:18:59.078Z,59.96
2022-10-09T13:21:35.278Z,60.29
2022-10-09T13:24:09.207Z,60.41
2022-10-09T13:26:44.097Z,60.25
2022-10-09T13:29:18.229Z,60.06
2022-10-09T13:31:50.787Z,60.20
2022-10-09T13:34:24.859Z,60.01
2022-10-09T13:36:59.270Z,60.08
2022-10-09T13:39:33.166Z,60.19
2022-10-09T13:42:06.179Z,60.23
2022-10-09T13:44:40.324Z,60.69
2022-10-09T13:47:12.769Z,60.66
2022-10-09T13:49:45.618Z,60.75
2022-10-09T13:52:18.431Z,60.89
2022-10-09T13:54:51.147Z,61.22
2022-10-09T13:57:23.704Z,61.67
2022-10-09T13:59:57.723Z,61.37
2022-10-09T14:02:30.163Z,62.07
2022-10-09T14:05:03.072Z,61.83
2022-10-09T14:07:36.565Z,61.93
2022-10-09T14:10:10.991Z,62.24
2022-10-09T14:12:43.578Z,62.41
2022-10-09T14:15:17.977Z,62.54
2022-10-09T14:17:51.102Z,63.22
2022-10-09T14:20:25.349Z,63.12
2022-10-09T14:22:57.905Z,63.58
2022-10-09T14:25:34.274Z,63.76
2022-10-09T14:28:07.757Z,64.06
2022-10-09T14:30:42.953Z,64.04
2022-10-09T14:33:15.590Z,64.21
2022-10-09T14:35:49.767Z,64.90
2022-10-09T14:38:22.305Z,64.48
2022-10-09T14:40:56.862Z,65.08
2022-10-09T14:43:30.469Z,65.34
2022-10-09T14:46:06.839Z,65.19
2022-10-09T14:48:40.312Z,65.63
2022-10-09T14:51:15.386Z,66.28
2022-10-09T14:53:48.516Z,66.11
2022-10-09T14:56:21.751Z,66.14
2022-10-09T14:58:54.917Z,66.75
2022-10-09T15:01:29.955Z,66.97
2022-10-09T15:04:03.241Z,67.25
2022-10-09T15:06:36.635Z,66.72
2022-10-09T15:09:11.286Z,67.22
2022-10-09T15:11:44.208Z,67.33
2022-10-09T15:14:18.418Z,67.73
2022-10-09T15:16:52.643Z,67.60
2022-10-09T15:19:26.799Z,68.22
2022-10-09T15:21:59.674Z,68.13
2022-10-09T15:24:32.288Z,68.37
2022-10-09T15:27:06.520Z,68.32
2022-10-09T15:29:39.169Z,68.52
2022-10-09T15:32:13.712Z,68.74
2022-10-09T15:34:51.439Z,68.86
2022-10-09T15:37:24.336Z,68.87
2022-10-09T15:39:57.015Z,69.18
2022-10-09T15:42:30.111Z,68.77
2022-10-09T15:45:04.359Z,68.96
2022-10-09T15:47:50.995Z,69.23
2022-10-09T15:50:25.711Z,69.77
2022-10-09T15:53:00.127Z,69.77
2022-10-09T15:55:37.031Z,70.00
2022-10-09T15:58:10.144Z,69.74
2022-10-09T16:00:48.311Z,70.15
2022-10-09T16:03:23.091Z,70.89
2022-10-09T16:05:59.012Z,70.69
2022-10-09T16:08:33.621Z,70.99
2022-10-09T16:13:48.158Z,71.22
2022-10-09T16:16:23.307Z,71.35
2022-10-09T16:18:58.213Z,71.89
2022-10-09T16:21:34.112Z,72.17
2022-10-09T16:24:07.525Z,71.54
2022-10-09T16:26:40.484Z,72.20
2022-10-09T16:29:16.015Z,72.53
2022-10-09T16:31:49.314Z,72.37
2022-10-09T16:34:23.979Z,72.76
2022-10-09T16:36:59.649Z,73.09
2022-10-09T16:39:32.984Z,72.96
2022-10-09T16:42:05.933Z,73.31
2022-10-09T16:44:39.375Z,73.04
2022-10-09T16:47:14.332Z,73.48
2022-10-09T16:49:49.199Z,73.23
2022-10-09T16:52:22.683Z,73.02
2022-10-09T16:54:59.542Z,73.62
2022-10-09T16:57:32.911Z,73.91
2022-10-09T17:00:07.080Z,73.88
2022-10-09T17:02:39.705Z,73.60
2022-10-09T17:05:13.991Z,74.22
2022-10-09T17:07:47.190Z,74.08
2022-10-09T17:10:20.229Z,74.76
2022-10-09T17:12:53.103Z,74.13
2022-10-09T17:15:26.035Z,74.48
2022-10-09T17:17:58.640Z,74.54
2022-10-09T17:20:34.957Z,74.07
2022-10-09T17:23:07.822Z,74.62
2022-10-09T17:25:42.241Z,74.36
2022-10-09T17:28:15.150Z,74.78
2022-10-09T17:30:48.164Z,74.83
2022-10-09T17:33:20.862Z,74.69
2022-10-09T17:35:55.139Z,75.17
2022-10-09T17:38:28.374Z,75.16
2022-10-09T17:41:04.398Z,75.30
2022-10-09T17:43:37.540Z,75.24
2022-10-09T17:46:10.751Z,75.44
2022-10-09T17:48:53.491Z,75.62
2022-10-09T17:51:30.009Z,75.50
2022-10-09T17:54:08.223Z,75.61
2022-10-09T17:56:45.118Z,76.07
2022-10-09T17:59:19.070Z,76.07
2022-10-09T18:01:52.256Z,75.80
2022-10-09T18:04:28.305Z,76.28
2022-10-09T18:07:13.886Z,76.43
2022-10-09T18:09:47.212Z,76.17
2022-10-09T18:12:25.366Z,76.67
2022-10-09T18:15:00.960Z,76.66
2022-10-09T18:17:36.818Z,76.13
2022-10-09T18:20:10.702Z,76.53
2022-10-09T18:22:45.589Z,76.87
2022-10-09T18:25:18.910Z,76.63
2022-10-09T18:27:54.121Z,76.72
2022-10-09T18:30:27.905Z,76.90
2022-10-09T18:33:00.865Z,76.87
2022-10-09T18:35:35.516Z,77.04
2022-10-09T18:38:11.318Z,76.87
2022-10-09T18:40:45.802Z,76.90
2022-10-09T18:43:19.137Z,77.18
2022-10-09T18:45:52.155Z,77.06
2022-10-09T18:48:25.484Z,77.18
2022-10-09T18:50:59.583Z,77.13
2022-10-09T18:53:37.192Z,77.47
2022-10-09T18:56:11.360Z,77.35
2022-10-09T18:58:44.572Z,77.40
2022-10-09T19:01:17.779Z,77.46
2022-10-09T19:03:50.586Z,77.79
2022-10-09T19:06:23.402Z,77.57
2022-10-09T19:09:00.945Z,77.19
2022-10-09T19:11:34.903Z,77.33
2022-10-09T19:14:10.292Z,77.87
2022-10-09T19:16:43.225Z,77.79
2022-10-09T19:19:15.930Z,77.84
2022-10-09T19:21:48.496Z,77.51
2022-10-09T19:24:22.757Z,78.04
2022-10-09T19:26:56.352Z,78.07
2022-10-09T19:29:29.474Z,78.04
2022-10-09T19:32:02.079Z,77.78
2022-10-09T19:34:34.809Z,77.91
2022-10-09T19:37:09.707Z,77.69
2022-10-09T19:39:48.576Z,78.27
2022-10-09T19:42:22.524Z,77.92
2022-10-09T19:44:55.874Z,78.01
2022-10-09T19:47:28.445Z,78.21
2022-10-09T19:50:04.478Z,78.16
2022-10-09T19:52:37.127Z,77.90
2022-10-09T19:55:11.265Z,78.31
2022-10-09T19:57:43.776Z,78.25
2022-10-09T20:00:16.972Z,78.38
2022-10-09T20:02:50.013Z,77.99
2022-10-09T20:05:23.372Z,78.62
2022-10-09T20:07:55.791Z,77.91
2022-10-09T20:10:29.814Z,78.52
2022-10-09T20:13:05.274Z,77.72
2022-10-09T20:15:42.306Z,78.30
2022-10-09T20:18:14.764Z,78.12
2022-10-09T20:20:48.744Z,78.56
2022-10-09T20:23:21.460Z,78.41
2022-10-09T20:26:01.416Z,78.47
2022-10-09T20:28:35.457Z,78.48
2022-10-09T20:31:12.061Z,78.62
2022-10-09T20:33:46.505Z,78.50
2022-10-09T20:36:21.385Z,78.03
2022-10-09T20:38:57.865Z,78.07
2022-10-09T20:41:32.662Z,78.52
2022-10-09T20:44:05.642Z,78.53
2022-10-09T20:46:39.707Z,78.13
2022-10-09T20:49:13.988Z,78.24
2022-10-09T20:51:46.520Z,78.17
2022-10-09T20:54:20.939Z,78.48
2022-10-09T20:56:54.872Z,78.78
2022-10-09T20:59:27.338Z,78.11
2022-10-09T21:02:02.890Z,78.50
2022-10-09T21:04:35.355Z,78.16
2022-10-09T21:07:07.932Z,78.28
2022-10-09T21:09:40.438Z,78.33
2022-10-09T21:12:14.361Z,78.09
2022-10-09T21:14:46.736Z,78.69
2022-10-09T21:17:19.341Z,78.61
2022-10-09T21:19:52.134Z,78.53
2022-10-09T21:22:25.368Z,78.31
2022-10-09T21:24:57.734Z,78.34
2022-10-09T21:27:31.652Z,79.09
2022-10-09T21:30:04.772Z,78.53
2022-10-09T21:32:37.334Z,78.87
2022-10-09T21:35:09.763Z,79.01
2022-10-09T21:37:42.472Z,78.72
2022-10-09T21:40:14.974Z,79.14
2022-10-09T21:42:49.263Z,78.94
2022-10-09T21:45:21.944Z,79.24
2022-10-09T21:47:54.525Z,78.67
2022-10-09T21:50:27.183Z,79.00
2022-10-09T21:52:59.754Z,79.12
2022-10-09T21:55:32.175Z,78.88
2022-10-09T21:58:07.383Z,78.68
2022-10-09T22:00:39.829Z,78.83
2022-10-09T22:03:12.436Z,79.09
2022-10-09T22:05:44.807Z,78.51
2022-10-09T22:08:17.402Z,79.09
2022-10-09T22:10:50.209Z,78.73
2022-10-09T22:13:24.165Z,79.33
2022-10-09T22:15:56.609Z,79.13
2022-10-09T22:18:29.240Z,78.64
2022-10-09T22:21:05.219Z,79.26
2022-10-09T22:23:38.093Z,79.12
2022-10-09T22:26:13.373Z,79.06
2022-10-09T22:28:48.305Z,78.99
2022-10-09T22:31:22.247Z,79.41
2022-10-09T22:33:56.758Z,79.18
2022-10-09T22:36:31.560Z,79.21
2022-10-09T22:39:06.583Z,79.28
2022-10-09T22:41:39.494Z,79.13
2022-10-09T22:44:13.473Z,78.93
2022-10-09T22:46:46.874Z,78.75
2022-10-09T22:49:19.487Z,78.89
2022-10-09T22:51:51.926Z,78.79
2022-10-09T22:54:24.454Z,78.94
2022-10-09T22:56:56.947Z,79.15
2022-10-09T22:59:30.893Z,79.50
2022-10-09T23:07:43.103Z,79.08
2022-10-09T23:10:15.718Z,79.18
2022-10-09T23:12:48.924Z,79.23
2022-10-09T23:15:22.897Z,79.27
2022-10-09T23:17:55.476Z,78.83
2022-10-09T23:20:27.950Z,79.48
2022-10-09T23:23:00.413Z,79.16
2022-10-09T23:25:32.822Z,79.46
2022-10-09T23:28:05.367Z,79.32
2022-10-09T23:30:39.454Z,78.91
2022-10-09T23:33:11.891Z,79.26
2022-10-09T23:35:44.497Z,78.76
2022-10-09T23:38:17.183Z,78.90
2022-10-09T23:40:55.389Z,79.18
2022-10-09T23:43:28.704Z,79.43
2022-10-09T23:46:04.882Z,79.23
2022-10-09T23:48:37.687Z,79.41
2022-10-09T23:51:10.506Z,79.53
2022-10-09T23:53:43.489Z,78.57
2022-10-09T23:56:18.390Z,78.69
2022-10-09T23:58:51.616Z,79.20
